sensor_id;sensor_type;location;lat;lon;timestamp;P1;durP1;ratioP1;P2;durP2;ratioP2
47958;SDS011;33718;50.910;-1.514;2023-05-10T06:26:11;64.00;;;34.05;;
47958;SDS011;33718;50.910;-1.514;2023-05-10T06:28:15;35.95;;;26.80;;
47958;SDS011;33718;50.910;-1.514;2023-05-10T06:30:17;41.83;;;28.83;;
47958;SDS011;33718;50.910;-1.514;2023-05-10T06:32:22;40.88;;;28.85;;
47958;SDS011;33718;50.910;-1.514;2023-05-10T06:34:26;42.03;;;29.00;;
47958;SDS011;33718;50.910;-1.514;2023-05-10T06:36:30;37.05;;;27.52;;
47958;SDS011;33718;50.910;-1.514;2023-05-10T06:40:33;100.82;;;40.53;;
47958;SDS011;33718;50.910;-1.514;2023-05-10T06:42:54;72.82;;;36.85;;
47958;SDS011;33718;50.910;-1.514;2023-05-10T06:44:58;76.25;;;37.45;;
47958;SDS011;33718;50.910;-1.514;2023-05-10T06:47:02;81.35;;;38.22;;
47958;SDS011;33718;50.910;-1.514;2023-05-10T06:49:04;83.85;;;38.55;;
47958;SDS011;33718;50.910;-1.514;2023-05-10T06:51:05;88.70;;;39.33;;
47958;SDS011;33718;50.910;-1.514;2023-05-10T06:53:07;95.63;;;40.20;;
47958;SDS011;33718;50.910;-1.514;2023-05-10T06:55:11;101.25;;;40.92;;
47958;SDS011;33718;50.910;-1.514;2023-05-10T06:57:15;104.78;;;41.95;;
47958;SDS011;33718;50.910;-1.514;2023-05-10T06:59:31;106.53;;;41.53;;
47958;SDS011;33718;50.910;-1.514;2023-05-10T07:01:33;109.32;;;42.10;;
47958;SDS011;33718;50.910;-1.514;2023-05-10T07:03:37;106.13;;;40.58;;
47958;SDS011;33718;50.910;-1.514;2023-05-10T07:05:38;107.80;;;40.75;;
47958;SDS011;33718;50.910;-1.514;2023-05-10T07:07:40;116.90;;;43.15;;
47958;SDS011;33718;50.910;-1.514;2023-05-10T07:09:42;118.93;;;43.03;;
47958;SDS011;33718;50.910;-1.514;2023-05-10T07:11:43;120.60;;;43.20;;
47958;SDS011;33718;50.910;-1.514;2023-05-10T07:13:47;122.88;;;43.45;;
47958;SDS011;33718;50.910;-1.514;2023-05-10T07:15:49;122.78;;;42.97;;
47958;SDS011;33718;50.910;-1.514;2023-05-10T07:17:54;127.38;;;43.42;;
47958;SDS011;33718;50.910;-1.514;2023-05-10T07:19:58;131.30;;;44.10;;
47958;SDS011;33718;50.910;-1.514;2023-05-10T07:22:02;135.82;;;44.35;;
47958;SDS011;33718;50.910;-1.514;2023-05-10T07:24:07;136.68;;;44.03;;
47958;SDS011;33718;50.910;-1.514;2023-05-10T07:26:08;141.40;;;45.00;;
47958;SDS011;33718;50.910;-1.514;2023-05-10T07:28:10;144.90;;;44.90;;
47958;SDS011;33718;50.910;-1.514;2023-05-10T07:30:12;147.10;;;44.70;;
47958;SDS011;33718;50.910;-1.514;2023-05-10T07:32:16;147.60;;;44.55;;
47958;SDS011;33718;50.910;-1.514;2023-05-10T07:34:18;148.93;;;44.17;;
47958;SDS011;33718;50.910;-1.514;2023-05-10T07:36:19;147.75;;;45.30;;
47958;SDS011;33718;50.910;-1.514;2023-05-10T07:38:21;133.20;;;40.17;;
47958;SDS011;33718;50.910;-1.514;2023-05-10T07:40:25;139.98;;;44.50;;
47958;SDS011;33718;50.910;-1.514;2023-05-10T07:42:27;141.82;;;44.60;;
47958;SDS011;33718;50.910;-1.514;2023-05-10T07:44:32;135.02;;;44.10;;
47958;SDS011;33718;50.910;-1.514;2023-05-10T07:46:39;136.88;;;44.03;;
47958;SDS011;33718;50.910;-1.514;2023-05-10T07:48:41;142.73;;;44.90;;
47958;SDS011;33718;50.910;-1.514;2023-05-10T07:50:43;126.43;;;43.63;;
47958;SDS011;33718;50.910;-1.514;2023-05-10T07:52:44;109.07;;;41.13;;
47958;SDS011;33718;50.910;-1.514;2023-05-10T07:54:46;119.53;;;42.95;;
47958;SDS011;33718;50.910;-1.514;2023-05-10T07:56:50;123.63;;;43.30;;
47958;SDS011;33718;50.910;-1.514;2023-05-10T07:58:53;127.47;;;43.55;;
47958;SDS011;33718;50.910;-1.514;2023-05-10T08:01:00;120.45;;;42.88;;
47958;SDS011;33718;50.910;-1.514;2023-05-10T08:03:11;119.97;;;42.65;;
47958;SDS011;33718;50.910;-1.514;2023-05-10T08:05:33;110.47;;;42.70;;
47958;SDS011;33718;50.910;-1.514;2023-05-10T08:07:59;111.25;;;41.95;;
47958;SDS011;33718;50.910;-1.514;2023-05-10T08:10:12;115.50;;;42.53;;
47958;SDS011;33718;50.910;-1.514;2023-05-10T08:12:26;125.43;;;43.85;;
47958;SDS011;33718;50.910;-1.514;2023-05-10T08:14:37;132.63;;;43.53;;
47958;SDS011;33718;50.910;-1.514;2023-05-10T08:16:51;132.65;;;44.05;;
47958;SDS011;33718;50.910;-1.514;2023-05-10T08:19:00;127.25;;;43.25;;
47958;SDS011;33718;50.910;-1.514;2023-05-10T08:21:09;118.63;;;42.47;;
47958;SDS011;33718;50.910;-1.514;2023-05-10T08:23:19;124.30;;;43.50;;
47958;SDS011;33718;50.910;-1.514;2023-05-10T08:25:38;133.57;;;43.97;;
47958;SDS011;33718;50.910;-1.514;2023-05-10T08:27:47;137.73;;;44.33;;
47958;SDS011;33718;50.910;-1.514;2023-05-10T08:29:59;144.65;;;44.72;;
47958;SDS011;33718;50.910;-1.514;2023-05-10T08:32:16;139.75;;;43.90;;
47958;SDS011;33718;50.910;-1.514;2023-05-10T08:34:23;142.38;;;44.42;;
47958;SDS011;33718;50.910;-1.514;2023-05-10T08:36:30;146.70;;;44.97;;
47958;SDS011;33718;50.910;-1.514;2023-05-10T08:38:51;140.80;;;44.97;;
47958;SDS011;33718;50.910;-1.514;2023-05-10T08:40:56;125.57;;;43.10;;
47958;SDS011;33718;50.910;-1.514;2023-05-10T08:42:59;115.35;;;42.20;;
47958;SDS011;33718;50.910;-1.514;2023-05-10T08:45:07;106.38;;;41.17;;
47958;SDS011;33718;50.910;-1.514;2023-05-10T08:47:11;98.13;;;40.20;;
47958;SDS011;33718;50.910;-1.514;2023-05-10T08:49:17;89.22;;;39.13;;
47958;SDS011;33718;50.910;-1.514;2023-05-10T08:51:24;88.00;;;39.47;;
47958;SDS011;33718;50.910;-1.514;2023-05-10T08:53:28;75.82;;;35.17;;
47958;SDS011;33718;50.910;-1.514;2023-05-10T08:55:35;70.63;;;33.38;;
47958;SDS011;33718;50.910;-1.514;2023-05-10T08:59:42;111.90;;;42.42;;
47958;SDS011;33718;50.910;-1.514;2023-05-10T09:01:47;99.40;;;40.83;;
47958;SDS011;33718;50.910;-1.514;2023-05-10T09:03:53;110.28;;;42.92;;
47958;SDS011;33718;50.910;-1.514;2023-05-10T09:05:57;107.45;;;41.85;;
47958;SDS011;33718;50.910;-1.514;2023-05-10T09:07:59;93.75;;;40.10;;
47958;SDS011;33718;50.910;-1.514;2023-05-10T09:10:01;84.70;;;38.35;;
47958;SDS011;33718;50.910;-1.514;2023-05-10T09:12:06;64.90;;;31.30;;
47958;SDS011;33718;50.910;-1.514;2023-05-10T09:14:14;94.25;;;40.22;;
47958;SDS011;33718;50.910;-1.514;2023-05-10T09:16:18;95.93;;;40.15;;
47958;SDS011;33718;50.910;-1.514;2023-05-10T09:18:22;86.55;;;39.15;;
47958;SDS011;33718;50.910;-1.514;2023-05-10T09:20:29;55.50;;;27.35;;
47958;SDS011;33718;50.910;-1.514;2023-05-10T09:25:10;104.15;;;41.22;;
47958;SDS011;33718;50.910;-1.514;2023-05-10T09:29:19;92.47;;;40.63;;
47958;SDS011;33718;50.910;-1.514;2023-05-10T09:31:20;80.03;;;38.33;;
47958;SDS011;33718;50.910;-1.514;2023-05-10T09:35:25;93.30;;;40.42;;
47958;SDS011;33718;50.910;-1.514;2023-05-10T09:41:38;116.72;;;43.03;;
47958;SDS011;33718;50.910;-1.514;2023-05-10T09:43:42;98.60;;;39.92;;
47958;SDS011;33718;50.910;-1.514;2023-05-10T09:45:43;109.40;;;42.00;;
47958;SDS011;33718;50.910;-1.514;2023-05-10T09:47:49;103.65;;;41.10;;
47958;SDS011;33718;50.910;-1.514;2023-05-10T09:49:53;97.30;;;40.45;;
47958;SDS011;33718;50.910;-1.514;2023-05-10T09:52:05;92.53;;;39.90;;
47958;SDS011;33718;50.910;-1.514;2023-05-10T09:54:08;82.85;;;37.55;;
47958;SDS011;33718;50.910;-1.514;2023-05-10T09:58:12;99.75;;;41.30;;
47958;SDS011;33718;50.910;-1.514;2023-05-10T10:02:21;98.78;;;41.03;;
47958;SDS011;33718;50.910;-1.514;2023-05-10T10:06:34;101.90;;;40.97;;
47958;SDS011;33718;50.910;-1.514;2023-05-10T10:13:17;100.13;;;40.92;;
47958;SDS011;33718;50.910;-1.514;2023-05-10T10:17:23;99.30;;;40.50;;
47958;SDS011;33718;50.910;-1.514;2023-05-10T10:21:33;95.05;;;39.95;;
47958;SDS011;33718;50.910;-1.514;2023-05-10T10:35:49;63.73;;;33.53;;
47958;SDS011;33718;50.910;-1.514;2023-05-10T10:39:57;128.93;;;44.20;;
47958;SDS011;33718;50.910;-1.514;2023-05-10T10:42:01;101.97;;;40.13;;
47958;SDS011;33718;50.910;-1.514;2023-05-10T10:44:38;104.25;;;38.67;;
47958;SDS011;33718;50.910;-1.514;2023-05-10T10:46:34;4.25;;;0.75;;
47958;SDS011;33718;50.910;-1.514;2023-05-10T10:49:08;2.40;;;0.70;;
47958;SDS011;33718;50.910;-1.514;2023-05-10T10:51:13;4.05;;;0.93;;
47958;SDS011;33718;50.910;-1.514;2023-05-10T10:53:14;1.95;;;0.90;;
47958;SDS011;33718;50.910;-1.514;2023-05-10T10:55:34;3.10;;;1.00;;
47958;SDS011;33718;50.910;-1.514;2023-05-10T10:57:47;2.05;;;0.70;;
47958;SDS011;33718;50.910;-1.514;2023-05-10T10:59:49;2.72;;;0.95;;
47958;SDS011;33718;50.910;-1.514;2023-05-10T11:01:51;3.17;;;1.00;;
47958;SDS011;33718;50.910;-1.514;2023-05-10T11:06:08;4.18;;;1.00;;
47958;SDS011;33718;50.910;-1.514;2023-05-10T11:08:17;4.95;;;1.20;;
47958;SDS011;33718;50.910;-1.514;2023-05-10T11:10:20;1.88;;;0.80;;
47958;SDS011;33718;50.910;-1.514;2023-05-10T11:12:50;3.22;;;0.88;;
47958;SDS011;33718;50.910;-1.514;2023-05-10T11:14:58;2.90;;;0.80;;
47958;SDS011;33718;50.910;-1.514;2023-05-10T11:17:24;2.95;;;0.77;;
47958;SDS011;33718;50.910;-1.514;2023-05-10T11:20:01;5.75;;;1.30;;
47958;SDS011;33718;50.910;-1.514;2023-05-10T11:24:12;4.35;;;1.20;;
47958;SDS011;33718;50.910;-1.514;2023-05-10T11:26:14;5.15;;;1.35;;
47958;SDS011;33718;50.910;-1.514;2023-05-10T11:28:17;4.18;;;0.82;;
47958;SDS011;33718;50.910;-1.514;2023-05-10T11:30:21;5.00;;;1.35;;
47958;SDS011;33718;50.910;-1.514;2023-05-10T11:32:23;3.33;;;0.80;;
47958;SDS011;33718;50.910;-1.514;2023-05-10T11:34:26;2.35;;;0.90;;
47958;SDS011;33718;50.910;-1.514;2023-05-10T11:36:28;5.78;;;1.35;;
47958;SDS011;33718;50.910;-1.514;2023-05-10T11:38:33;7.13;;;1.02;;
47958;SDS011;33718;50.910;-1.514;2023-05-10T11:40:34;4.78;;;1.67;;
47958;SDS011;33718;50.910;-1.514;2023-05-10T11:42:39;2.53;;;0.88;;
47958;SDS011;33718;50.910;-1.514;2023-05-10T11:45:00;4.15;;;1.40;;
47958;SDS011;33718;50.910;-1.514;2023-05-10T11:47:04;4.88;;;1.10;;
47958;SDS011;33718;50.910;-1.514;2023-05-10T11:49:09;5.60;;;1.48;;
47958;SDS011;33718;50.910;-1.514;2023-05-10T11:51:32;2.42;;;0.90;;
47958;SDS011;33718;50.910;-1.514;2023-05-10T11:53:34;3.78;;;0.88;;
47958;SDS011;33718;50.910;-1.514;2023-05-10T11:55:38;4.75;;;1.88;;
47958;SDS011;33718;50.910;-1.514;2023-05-10T11:57:42;4.75;;;1.13;;
47958;SDS011;33718;50.910;-1.514;2023-05-10T12:00:05;4.20;;;1.45;;
47958;SDS011;33718;50.910;-1.514;2023-05-10T12:02:07;4.38;;;1.20;;
47958;SDS011;33718;50.910;-1.514;2023-05-10T12:04:10;3.90;;;0.82;;
47958;SDS011;33718;50.910;-1.514;2023-05-10T12:06:12;4.22;;;1.73;;
47958;SDS011;33718;50.910;-1.514;2023-05-10T12:08:14;5.82;;;1.60;;
47958;SDS011;33718;50.910;-1.514;2023-05-10T12:10:16;5.07;;;1.13;;
47958;SDS011;33718;50.910;-1.514;2023-05-10T12:12:46;4.57;;;1.02;;
47958;SDS011;33718;50.910;-1.514;2023-05-10T12:14:54;6.28;;;1.30;;
47958;SDS011;33718;50.910;-1.514;2023-05-10T12:16:56;3.50;;;1.05;;
47958;SDS011;33718;50.910;-1.514;2023-05-10T12:19:01;7.93;;;1.42;;
47958;SDS011;33718;50.910;-1.514;2023-05-10T12:21:02;5.68;;;1.45;;
47958;SDS011;33718;50.910;-1.514;2023-05-10T12:23:04;5.97;;;1.15;;
47958;SDS011;33718;50.910;-1.514;2023-05-10T12:25:07;3.83;;;1.20;;
47958;SDS011;33718;50.910;-1.514;2023-05-10T12:27:31;3.80;;;1.05;;
47958;SDS011;33718;50.910;-1.514;2023-05-10T12:29:34;4.55;;;0.93;;
47958;SDS011;33718;50.910;-1.514;2023-05-10T12:31:49;5.65;;;1.55;;
47958;SDS011;33718;50.910;-1.514;2023-05-10T12:33:54;5.45;;;1.30;;
47958;SDS011;33718;50.910;-1.514;2023-05-10T12:35:59;5.65;;;1.13;;
47958;SDS011;33718;50.910;-1.514;2023-05-10T12:38:22;7.22;;;1.00;;
47958;SDS011;33718;50.910;-1.514;2023-05-10T12:40:24;6.43;;;1.63;;
47958;SDS011;33718;50.910;-1.514;2023-05-10T12:42:26;5.90;;;1.58;;
47958;SDS011;33718;50.910;-1.514;2023-05-10T12:44:28;5.72;;;1.65;;
47958;SDS011;33718;50.910;-1.514;2023-05-10T12:46:32;4.40;;;1.05;;
47958;SDS011;33718;50.910;-1.514;2023-05-10T12:48:37;5.03;;;1.70;;
47958;SDS011;33718;50.910;-1.514;2023-05-10T12:50:42;4.13;;;1.88;;
47958;SDS011;33718;50.910;-1.514;2023-05-10T12:52:46;5.13;;;1.70;;
47958;SDS011;33718;50.910;-1.514;2023-05-10T12:54:48;4.28;;;2.30;;
47958;SDS011;33718;50.910;-1.514;2023-05-10T12:56:53;5.32;;;2.42;;
47958;SDS011;33718;50.910;-1.514;2023-05-10T12:58:57;6.63;;;2.95;;
47958;SDS011;33718;50.910;-1.514;2023-05-10T13:01:01;9.20;;;2.70;;
47958;SDS011;33718;50.910;-1.514;2023-05-10T13:03:10;7.35;;;1.98;;
47958;SDS011;33718;50.910;-1.514;2023-05-10T13:05:11;6.38;;;2.28;;
47958;SDS011;33718;50.910;-1.514;2023-05-10T13:07:14;6.57;;;2.42;;
47958;SDS011;33718;50.910;-1.514;2023-05-10T13:09:17;6.88;;;2.03;;
47958;SDS011;33718;50.910;-1.514;2023-05-10T13:11:19;5.13;;;1.60;;
47958;SDS011;33718;50.910;-1.514;2023-05-10T13:13:22;7.53;;;2.35;;
47958;SDS011;33718;50.910;-1.514;2023-05-10T13:15:27;5.78;;;1.73;;
47958;SDS011;33718;50.910;-1.514;2023-05-10T13:17:31;7.78;;;2.60;;
47958;SDS011;33718;50.910;-1.514;2023-05-10T13:19:37;5.75;;;1.67;;
47958;SDS011;33718;50.910;-1.514;2023-05-10T13:21:41;5.80;;;1.98;;
47958;SDS011;33718;50.910;-1.514;2023-05-10T13:23:45;5.00;;;1.77;;
47958;SDS011;33718;50.910;-1.514;2023-05-10T13:25:50;4.95;;;1.35;;
47958;SDS011;33718;50.910;-1.514;2023-05-10T13:27:52;4.28;;;1.35;;
47958;SDS011;33718;50.910;-1.514;2023-05-10T13:29:56;7.15;;;1.13;;
47958;SDS011;33718;50.910;-1.514;2023-05-10T13:32:02;3.80;;;1.08;;
47958;SDS011;33718;50.910;-1.514;2023-05-10T13:34:07;5.03;;;1.25;;
47958;SDS011;33718;50.910;-1.514;2023-05-10T13:36:08;7.45;;;1.30;;
47958;SDS011;33718;50.910;-1.514;2023-05-10T13:38:11;10.35;;;1.80;;
47958;SDS011;33718;50.910;-1.514;2023-05-10T13:40:16;9.20;;;1.52;;
47958;SDS011;33718;50.910;-1.514;2023-05-10T13:42:18;3.20;;;1.20;;
47958;SDS011;33718;50.910;-1.514;2023-05-10T13:44:20;9.73;;;2.08;;
47958;SDS011;33718;50.910;-1.514;2023-05-10T13:46:21;2.92;;;0.80;;
47958;SDS011;33718;50.910;-1.514;2023-05-10T13:48:26;3.75;;;0.95;;
47958;SDS011;33718;50.910;-1.514;2023-05-10T13:50:30;3.92;;;0.70;;
47958;SDS011;33718;50.910;-1.514;2023-05-10T13:52:32;2.38;;;0.80;;
47958;SDS011;33718;50.910;-1.514;2023-05-10T13:54:34;4.75;;;0.85;;
47958;SDS011;33718;50.910;-1.514;2023-05-10T13:56:35;4.50;;;0.85;;
47958;SDS011;33718;50.910;-1.514;2023-05-10T13:58:37;2.00;;;0.60;;
47958;SDS011;33718;50.910;-1.514;2023-05-10T14:00:42;2.13;;;0.70;;
47958;SDS011;33718;50.910;-1.514;2023-05-10T14:02:47;4.18;;;1.10;;
47958;SDS011;33718;50.910;-1.514;2023-05-10T14:04:51;4.10;;;1.17;;
47958;SDS011;33718;50.910;-1.514;2023-05-10T14:06:56;3.83;;;1.08;;
47958;SDS011;33718;50.910;-1.514;2023-05-10T14:09:00;6.13;;;1.30;;
47958;SDS011;33718;50.910;-1.514;2023-05-10T14:11:02;4.72;;;0.80;;
47958;SDS011;33718;50.910;-1.514;2023-05-10T14:13:06;7.20;;;1.00;;
47958;SDS011;33718;50.910;-1.514;2023-05-10T14:15:11;4.07;;;1.13;;
47958;SDS011;33718;50.910;-1.514;2023-05-10T14:17:15;2.63;;;0.82;;
47958;SDS011;33718;50.910;-1.514;2023-05-10T14:19:35;8.18;;;1.42;;
47958;SDS011;33718;50.910;-1.514;2023-05-10T14:21:39;4.22;;;1.48;;
47958;SDS011;33718;50.910;-1.514;2023-05-10T14:23:41;5.47;;;1.15;;
47958;SDS011;33718;50.910;-1.514;2023-05-10T14:25:43;4.07;;;1.20;;
47958;SDS011;33718;50.910;-1.514;2023-05-10T14:27:44;2.42;;;0.73;;
47958;SDS011;33718;50.910;-1.514;2023-05-10T14:29:47;4.00;;;0.60;;
47958;SDS011;33718;50.910;-1.514;2023-05-10T14:31:49;2.92;;;1.25;;
47958;SDS011;33718;50.910;-1.514;2023-05-10T14:33:51;6.05;;;0.82;;
47958;SDS011;33718;50.910;-1.514;2023-05-10T14:35:53;7.93;;;0.45;;
47958;SDS011;33718;50.910;-1.514;2023-05-10T14:37:58;2.63;;;0.43;;
47958;SDS011;33718;50.910;-1.514;2023-05-10T14:40:03;4.13;;;0.68;;
47958;SDS011;33718;50.910;-1.514;2023-05-10T14:42:05;1.30;;;0.20;;
47958;SDS011;33718;50.910;-1.514;2023-05-10T14:44:10;1.75;;;0.40;;
47958;SDS011;33718;50.910;-1.514;2023-05-10T14:46:14;1.17;;;0.30;;
47958;SDS011;33718;50.910;-1.514;2023-05-10T14:48:17;6.18;;;0.75;;
47958;SDS011;33718;50.910;-1.514;2023-05-10T14:50:21;1.25;;;0.43;;
47958;SDS011;33718;50.910;-1.514;2023-05-10T14:52:39;2.40;;;0.47;;
47958;SDS011;33718;50.910;-1.514;2023-05-10T14:54:44;1.27;;;0.30;;
47958;SDS011;33718;50.910;-1.514;2023-05-10T14:56:48;2.22;;;0.63;;
47958;SDS011;33718;50.910;-1.514;2023-05-10T14:58:54;3.70;;;0.50;;
47958;SDS011;33718;50.910;-1.514;2023-05-10T15:00:59;1.35;;;0.40;;
47958;SDS011;33718;50.910;-1.514;2023-05-10T15:03:04;1.85;;;0.40;;
47958;SDS011;33718;50.910;-1.514;2023-05-10T15:05:10;5.10;;;0.80;;
47958;SDS011;33718;50.910;-1.514;2023-05-10T15:07:15;1.55;;;0.40;;
47958;SDS011;33718;50.910;-1.514;2023-05-10T15:09:22;2.00;;;0.40;;
47958;SDS011;33718;50.910;-1.514;2023-05-10T15:11:24;2.15;;;0.57;;
47958;SDS011;33718;50.910;-1.514;2023-05-10T15:13:28;3.53;;;0.40;;
47958;SDS011;33718;50.910;-1.514;2023-05-10T15:15:29;3.85;;;0.50;;
47958;SDS011;33718;50.910;-1.514;2023-05-10T15:17:32;6.57;;;0.70;;
47958;SDS011;33718;50.910;-1.514;2023-05-10T15:19:33;2.65;;;0.50;;
47958;SDS011;33718;50.910;-1.514;2023-05-10T15:21:37;2.53;;;0.50;;
47958;SDS011;33718;50.910;-1.514;2023-05-10T15:23:40;1.45;;;0.40;;
47958;SDS011;33718;50.910;-1.514;2023-05-10T15:25:42;2.22;;;0.60;;
47958;SDS011;33718;50.910;-1.514;2023-05-10T15:27:43;3.13;;;0.45;;
47958;SDS011;33718;50.910;-1.514;2023-05-10T15:29:45;4.63;;;0.60;;
47958;SDS011;33718;50.910;-1.514;2023-05-10T15:31:47;4.70;;;1.25;;
47958;SDS011;33718;50.910;-1.514;2023-05-10T15:33:56;3.40;;;0.60;;
47958;SDS011;33718;50.910;-1.514;2023-05-10T15:35:58;4.20;;;0.85;;
47958;SDS011;33718;50.910;-1.514;2023-05-10T15:37:59;4.68;;;0.40;;
47958;SDS011;33718;50.910;-1.514;2023-05-10T15:40:01;3.10;;;0.60;;
47958;SDS011;33718;50.910;-1.514;2023-05-10T15:42:06;2.40;;;1.00;;
47958;SDS011;33718;50.910;-1.514;2023-05-10T15:44:10;4.30;;;0.68;;
47958;SDS011;33718;50.910;-1.514;2023-05-10T15:46:12;3.47;;;0.60;;
47958;SDS011;33718;50.910;-1.514;2023-05-10T15:48:17;4.03;;;0.80;;
47958;SDS011;33718;50.910;-1.514;2023-05-10T15:50:37;1.85;;;0.40;;
47958;SDS011;33718;50.910;-1.514;2023-05-10T15:52:41;2.13;;;0.45;;
47958;SDS011;33718;50.910;-1.514;2023-05-10T15:54:49;3.13;;;1.10;;
47958;SDS011;33718;50.910;-1.514;2023-05-10T15:57:09;5.15;;;0.60;;
47958;SDS011;33718;50.910;-1.514;2023-05-10T15:59:13;5.63;;;0.47;;
47958;SDS011;33718;50.910;-1.514;2023-05-10T16:01:15;4.85;;;0.70;;
47958;SDS011;33718;50.910;-1.514;2023-05-10T16:03:19;2.58;;;0.50;;
47958;SDS011;33718;50.910;-1.514;2023-05-10T16:05:24;2.88;;;0.45;;
47958;SDS011;33718;50.910;-1.514;2023-05-10T16:07:27;2.40;;;0.77;;
47958;SDS011;33718;50.910;-1.514;2023-05-10T16:09:29;4.53;;;0.68;;
47958;SDS011;33718;50.910;-1.514;2023-05-10T16:11:30;4.15;;;0.70;;
47958;SDS011;33718;50.910;-1.514;2023-05-10T16:13:32;3.00;;;0.70;;
47958;SDS011;33718;50.910;-1.514;2023-05-10T16:15:34;2.55;;;0.70;;
47958;SDS011;33718;50.910;-1.514;2023-05-10T16:17:38;3.10;;;0.60;;
47958;SDS011;33718;50.910;-1.514;2023-05-10T16:19:43;2.58;;;0.98;;
47958;SDS011;33718;50.910;-1.514;2023-05-10T16:21:48;3.72;;;1.08;;
47958;SDS011;33718;50.910;-1.514;2023-05-10T16:23:53;5.53;;;0.80;;
47958;SDS011;33718;50.910;-1.514;2023-05-10T16:25:55;2.88;;;0.90;;
47958;SDS011;33718;50.910;-1.514;2023-05-10T16:27:59;2.28;;;0.60;;
47958;SDS011;33718;50.910;-1.514;2023-05-10T16:30:01;2.47;;;0.80;;
47958;SDS011;33718;50.910;-1.514;2023-05-10T16:32:03;4.88;;;0.80;;
47958;SDS011;33718;50.910;-1.514;2023-05-10T16:34:07;3.90;;;0.65;;
47958;SDS011;33718;50.910;-1.514;2023-05-10T16:36:12;3.97;;;0.88;;
47958;SDS011;33718;50.910;-1.514;2023-05-10T16:38:13;2.03;;;1.08;;
47958;SDS011;33718;50.910;-1.514;2023-05-10T16:40:18;1.92;;;0.47;;
47958;SDS011;33718;50.910;-1.514;2023-05-10T16:42:19;2.28;;;0.35;;
47958;SDS011;33718;50.910;-1.514;2023-05-10T16:44:39;2.20;;;0.65;;
47958;SDS011;33718;50.910;-1.514;2023-05-10T16:46:44;1.70;;;0.32;;
47958;SDS011;33718;50.910;-1.514;2023-05-10T16:48:46;5.00;;;0.57;;
47958;SDS011;33718;50.910;-1.514;2023-05-10T16:50:50;4.40;;;0.63;;
47958;SDS011;33718;50.910;-1.514;2023-05-10T16:52:54;4.63;;;0.35;;
47958;SDS011;33718;50.910;-1.514;2023-05-10T16:55:15;2.33;;;0.70;;
47958;SDS011;33718;50.910;-1.514;2023-05-10T16:57:20;1.67;;;0.45;;
47958;SDS011;33718;50.910;-1.514;2023-05-10T16:59:22;4.55;;;0.75;;
47958;SDS011;33718;50.910;-1.514;2023-05-10T17:01:24;5.32;;;1.10;;
47958;SDS011;33718;50.910;-1.514;2023-05-10T17:03:30;3.58;;;0.60;;
47958;SDS011;33718;50.910;-1.514;2023-05-10T17:05:31;2.85;;;0.50;;
47958;SDS011;33718;50.910;-1.514;2023-05-10T17:07:35;2.85;;;0.32;;
47958;SDS011;33718;50.910;-1.514;2023-05-10T17:09:37;3.78;;;0.40;;
47958;SDS011;33718;50.910;-1.514;2023-05-10T17:11:57;1.65;;;0.40;;
47958;SDS011;33718;50.910;-1.514;2023-05-10T17:13:59;3.20;;;0.50;;
47958;SDS011;33718;50.910;-1.514;2023-05-10T17:16:06;5.05;;;1.67;;
47958;SDS011;33718;50.910;-1.514;2023-05-10T17:18:12;3.10;;;0.50;;
47958;SDS011;33718;50.910;-1.514;2023-05-10T17:20:32;3.95;;;0.75;;
47958;SDS011;33718;50.910;-1.514;2023-05-10T17:22:34;5.15;;;0.52;;
47958;SDS011;33718;50.910;-1.514;2023-05-10T17:24:38;3.55;;;0.65;;
47958;SDS011;33718;50.910;-1.514;2023-05-10T17:26:58;2.60;;;0.47;;
47958;SDS011;33718;50.910;-1.514;2023-05-10T17:29:03;2.60;;;0.60;;
47958;SDS011;33718;50.910;-1.514;2023-05-10T17:31:05;2.33;;;0.60;;
47958;SDS011;33718;50.910;-1.514;2023-05-10T17:33:09;2.17;;;0.52;;
47958;SDS011;33718;50.910;-1.514;2023-05-10T17:35:13;11.00;;;1.10;;
47958;SDS011;33718;50.910;-1.514;2023-05-10T17:37:19;2.63;;;0.60;;
47958;SDS011;33718;50.910;-1.514;2023-05-10T17:39:25;5.03;;;0.70;;
47958;SDS011;33718;50.910;-1.514;2023-05-10T17:41:28;3.22;;;0.63;;
47958;SDS011;33718;50.910;-1.514;2023-05-10T17:43:34;2.75;;;0.68;;
47958;SDS011;33718;50.910;-1.514;2023-05-10T17:45:38;2.22;;;0.47;;
47958;SDS011;33718;50.910;-1.514;2023-05-10T17:47:42;3.60;;;0.60;;
47958;SDS011;33718;50.910;-1.514;2023-05-10T17:50:04;4.97;;;0.82;;
47958;SDS011;33718;50.910;-1.514;2023-05-10T17:52:10;4.88;;;0.50;;
47958;SDS011;33718;50.910;-1.514;2023-05-10T17:54:14;4.55;;;0.93;;
47958;SDS011;33718;50.910;-1.514;2023-05-10T17:56:18;2.75;;;0.55;;
47958;SDS011;33718;50.910;-1.514;2023-05-10T17:58:27;4.95;;;0.65;;
47958;SDS011;33718;50.910;-1.514;2023-05-10T18:00:35;5.60;;;0.73;;
47958;SDS011;33718;50.910;-1.514;2023-05-10T18:02:48;5.65;;;0.70;;
47958;SDS011;33718;50.910;-1.514;2023-05-10T18:04:53;3.05;;;0.70;;
47958;SDS011;33718;50.910;-1.514;2023-05-10T18:06:58;5.22;;;1.40;;
47958;SDS011;33718;50.910;-1.514;2023-05-10T18:09:03;4.13;;;0.80;;
47958;SDS011;33718;50.910;-1.514;2023-05-10T18:11:05;5.88;;;1.08;;
47958;SDS011;33718;50.910;-1.514;2023-05-10T18:13:06;2.47;;;0.82;;
47958;SDS011;33718;50.910;-1.514;2023-05-10T18:15:09;5.72;;;0.80;;
47958;SDS011;33718;50.910;-1.514;2023-05-10T18:17:11;8.63;;;1.25;;
47958;SDS011;33718;50.910;-1.514;2023-05-10T18:19:15;12.50;;;1.00;;
47958;SDS011;33718;50.910;-1.514;2023-05-10T18:21:19;3.95;;;0.52;;
47958;SDS011;33718;50.910;-1.514;2023-05-10T18:23:24;7.13;;;1.05;;
47958;SDS011;33718;50.910;-1.514;2023-05-10T18:25:28;4.70;;;1.85;;
47958;SDS011;33718;50.910;-1.514;2023-05-10T18:27:48;5.10;;;0.70;;
47958;SDS011;33718;50.910;-1.514;2023-05-10T18:29:53;6.65;;;1.05;;
47958;SDS011;33718;50.910;-1.514;2023-05-10T18:31:54;3.30;;;1.05;;
47958;SDS011;33718;50.910;-1.514;2023-05-10T18:34:14;7.80;;;0.73;;
47958;SDS011;33718;50.910;-1.514;2023-05-10T18:36:19;2.40;;;1.25;;
47958;SDS011;33718;50.910;-1.514;2023-05-10T18:38:23;7.15;;;0.82;;
47958;SDS011;33718;50.910;-1.514;2023-05-10T18:40:28;5.15;;;0.77;;
47958;SDS011;33718;50.910;-1.514;2023-05-10T18:42:32;5.95;;;1.00;;
47958;SDS011;33718;50.910;-1.514;2023-05-10T18:44:34;4.03;;;0.70;;
47958;SDS011;33718;50.910;-1.514;2023-05-10T18:46:35;2.55;;;0.50;;
47958;SDS011;33718;50.910;-1.514;2023-05-10T18:48:40;1.92;;;0.35;;
47958;SDS011;33718;50.910;-1.514;2023-05-10T18:52:48;3.47;;;0.63;;
47958;SDS011;33718;50.910;-1.514;2023-05-10T18:54:51;4.80;;;0.57;;
47958;SDS011;33718;50.910;-1.514;2023-05-10T18:56:53;6.18;;;1.73;;
47958;SDS011;33718;50.910;-1.514;2023-05-10T18:59:14;2.55;;;0.35;;
47958;SDS011;33718;50.910;-1.514;2023-05-10T19:01:18;2.22;;;0.50;;
47958;SDS011;33718;50.910;-1.514;2023-05-10T19:05:24;1.33;;;0.20;;
47958;SDS011;33718;50.910;-1.514;2023-05-10T19:07:30;0.63;;;0.22;;
47958;SDS011;33718;50.910;-1.514;2023-05-10T19:09:32;5.97;;;0.52;;
47958;SDS011;33718;50.910;-1.514;2023-05-10T19:13:37;1.08;;;0.35;;
47958;SDS011;33718;50.910;-1.514;2023-05-10T19:15:41;5.20;;;0.52;;
47958;SDS011;33718;50.910;-1.514;2023-05-10T19:17:44;3.67;;;0.63;;
47958;SDS011;33718;50.910;-1.514;2023-05-10T19:19:49;5.97;;;1.33;;
47958;SDS011;33718;50.910;-1.514;2023-05-10T19:21:51;10.05;;;1.13;;
47958;SDS011;33718;50.910;-1.514;2023-05-10T19:23:52;3.63;;;0.60;;
47958;SDS011;33718;50.910;-1.514;2023-05-10T19:27:58;3.00;;;0.88;;
47958;SDS011;33718;50.910;-1.514;2023-05-10T19:30:03;4.13;;;0.40;;
47958;SDS011;33718;50.910;-1.514;2023-05-10T19:32:04;2.80;;;0.30;;
47958;SDS011;33718;50.910;-1.514;2023-05-10T19:34:09;9.18;;;0.80;;
47958;SDS011;33718;50.910;-1.514;2023-05-10T19:36:34;5.78;;;0.60;;
47958;SDS011;33718;50.910;-1.514;2023-05-10T19:38:46;5.18;;;0.75;;